Time;durP1;ratioP1;P1;durP2;ratioP2;P2;SDS_P1;SDS_P2;PMS_P1;PMS_P2;Temp;Humidity;BMP_temperature;BMP_pressure;BME280_temperature;BME280_humidity;BME280_pressure;Samples;Min_cycle;Max_cycle;Signal;HPM_P1;HPM_P2
2023/08/15 00:01:20;;;;;;;4.90;3.58;;;25.00;56.80;;;;;;5111974;28;20039;-77
2023/08/15 00:03:46;;;;;;;3.92;3.40;;;24.90;56.90;;;;;;5113547;28;20069;-76
2023/08/15 00:06:13;;;;;;;4.90;3.55;;;24.90;57.00;;;;;;5113212;28;20039;-76
2023/08/15 00:08:38;;;;;;;5.15;4.07;;;24.90;57.10;;;;;;5113611;28;20036;-76
2023/08/15 00:11:04;;;;;;;4.15;3.55;;;24.90;57.10;;;;;;5111269;28;20056;-76
2023/08/15 00:13:30;;;;;;;4.35;3.85;;;24.90;57.20;;;;;;5113427;28;20028;-76
2023/08/15 00:15:55;;;;;;;5.35;4.22;;;24.90;57.20;;;;;;5111954;28;20027;-76
2023/08/15 00:18:22;;;;;;;4.53;3.80;;;24.90;57.30;;;;;;5112732;28;20555;-76
2023/08/15 00:20:48;;;;;;;4.68;3.95;;;24.80;57.30;;;;;;5112984;28;20031;-77
2023/08/15 00:23:14;;;;;;;4.05;3.65;;;24.80;57.40;;;;;;5112462;28;20035;-77
2023/08/15 00:25:39;;;;;;;7.82;4.40;;;24.80;57.50;;;;;;5111035;28;20334;-76
2023/08/15 00:28:05;;;;;;;5.05;3.88;;;24.80;57.50;;;;;;5112942;28;20042;-76
2023/08/15 00:30:32;;;;;;;7.75;4.10;;;24.80;57.60;;;;;;5112578;28;20103;-76
2023/08/15 00:32:58;;;;;;;10.48;5.03;;;24.80;57.70;;;;;;5112784;28;20026;-76
2023/08/15 00:35:24;;;;;;;5.15;4.18;;;24.70;57.70;;;;;;5112169;28;20040;-75
2023/08/15 00:37:50;;;;;;;5.82;4.20;;;24.70;57.80;;;;;;5112621;28;20453;-76
2023/08/15 00:40:15;;;;;;;6.00;3.97;;;24.70;57.90;;;;;;5112860;28;20027;-75
2023/08/15 00:42:41;;;;;;;5.00;3.97;;;24.70;58.00;;;;;;5112820;28;20087;-76
2023/08/15 00:45:07;;;;;;;6.13;4.00;;;24.70;58.00;;;;;;5112611;28;20027;-75
2023/08/15 00:47:33;;;;;;;5.30;4.13;;;24.70;58.10;;;;;;5110820;28;20027;-75
2023/08/15 00:50:00;;;;;;;5.13;4.22;;;24.70;58.20;;;;;;5112968;28;20107;-75
2023/08/15 00:52:27;;;;;;;6.05;4.05;;;24.70;58.20;;;;;;5108903;28;20361;-75
2023/08/15 00:54:54;;;;;;;5.53;3.88;;;24.60;58.20;;;;;;5112140;28;20442;-75
2023/08/15 00:57:21;;;;;;;5.07;4.25;;;24.60;58.30;;;;;;5111651;28;20049;-76
2023/08/15 00:59:47;;;;;;;5.03;4.15;;;24.60;58.40;;;;;;5111103;28;20167;-75
2023/08/15 01:02:13;;;;;;;4.85;4.05;;;24.50;58.40;;;;;;5112118;28;20107;-75
2023/08/15 01:04:40;;;;;;;5.32;4.13;;;24.50;58.50;;;;;;5111353;28;20027;-76
2023/08/15 01:07:06;;;;;;;5.30;4.28;;;24.50;58.60;;;;;;5112293;28;20036;-76
2023/08/15 01:09:31;;;;;;;5.85;4.00;;;24.50;58.70;;;;;;5112573;28;20058;-76
2023/08/15 01:12:27;;;;;;;6.18;4.10;;;24.40;58.80;;;;;;5112138;28;20117;-75
2023/08/15 01:14:58;;;;;;;4.43;3.90;;;24.40;58.90;;;;;;5108130;28;20089;-75
2023/08/15 01:18:22;;;;;;;5.63;4.20;;;24.40;58.90;;;;;;5112535;28;20024;-76
2023/08/15 01:20:49;;;;;;;4.70;3.97;;;24.40;59.50;;;;;;5056417;28;20394;-76
2023/08/15 01:23:20;;;;;;;6.63;4.45;;;24.30;59.00;;;;;;5111107;28;20042;-76
2023/08/15 01:25:49;;;;;;;5.68;4.28;;;24.30;59.10;;;;;;5111820;28;20023;-76
2023/08/15 01:28:15;;;;;;;5.00;4.30;;;24.30;59.20;;;;;;5110578;28;20028;-75
2023/08/15 01:30:48;;;;;;;5.00;4.10;;;24.30;59.20;;;;;;5112590;28;20416;-75
2023/08/15 01:33:39;;;;;;;5.33;3.83;;;24.30;59.30;;;;;;5111477;28;20088;-76
2023/08/15 01:36:19;;;;;;;4.90;4.40;;;24.30;59.70;;;;;;5062818;28;20043;-76
2023/08/15 01:38:49;;;;;;;5.15;4.40;;;24.30;59.50;;;;;;5111097;28;20034;-76
2023/08/15 01:41:20;;;;;;;5.07;4.22;;;24.20;59.30;;;;;;5110988;28;20031;-76
2023/08/15 01:43:47;;;;;;;5.32;4.28;;;24.20;59.40;;;;;;5114419;28;20138;-76
2023/08/15 01:46:13;;;;;;;5.80;4.30;;;24.20;59.40;;;;;;5116151;28;20489;-76
2023/08/15 01:48:40;;;;;;;4.80;4.30;;;24.20;59.40;;;;;;5115544;28;20024;-76
2023/08/15 01:51:06;;;;;;;6.30;4.20;;;24.20;59.50;;;;;;5114260;28;20374;-75
2023/08/15 01:53:32;;;;;;;5.72;4.10;;;24.10;59.60;;;;;;5114336;28;20027;-76
2023/08/15 01:55:58;;;;;;;5.00;3.95;;;24.10;59.60;;;;;;5114499;28;20118;-75
2023/08/15 01:58:23;;;;;;;6.57;4.25;;;24.10;59.70;;;;;;5122755;27;20426;-76
2023/08/15 02:00:49;;;;;;;4.25;3.72;;;24.10;59.70;;;;;;5115773;28;20020;-76
2023/08/15 02:03:14;;;;;;;4.63;4.22;;;24.10;59.80;;;;;;5115935;28;20027;-76
2023/08/15 02:05:40;;;;;;;5.50;4.50;;;24.00;59.80;;;;;;5115249;28;20030;-76
2023/08/15 02:08:06;;;;;;;4.90;4.40;;;24.00;59.90;;;;;;5115508;28;20107;-76
2023/08/15 02:10:31;;;;;;;4.82;4.32;;;24.00;60.00;;;;;;5114051;28;20108;-76
2023/08/15 02:12:57;;;;;;;5.85;4.80;;;24.00;60.00;;;;;;5115917;28;20032;-76
2023/08/15 02:15:23;;;;;;;6.63;5.18;;;24.00;60.20;;;;;;5114993;28;20058;-76
2023/08/15 02:17:48;;;;;;;5.38;4.60;;;23.90;60.30;;;;;;5115304;28;20389;-75
2023/08/15 02:20:14;;;;;;;5.30;4.47;;;23.90;60.50;;;;;;5114605;28;20028;-76
2023/08/15 02:22:40;;;;;;;5.85;4.55;;;23.80;60.60;;;;;;5114075;28;20073;-76
2023/08/15 02:25:05;;;;;;;5.72;4.82;;;23.80;60.80;;;;;;5114652;28;20089;-76
2023/08/15 02:27:31;;;;;;;5.07;4.57;;;23.80;60.80;;;;;;5113888;28;20288;-76
2023/08/15 02:29:57;;;;;;;5.95;5.03;;;23.70;60.90;;;;;;5113644;28;20423;-76
2023/08/15 02:32:22;;;;;;;5.78;5.18;;;23.70;60.90;;;;;;5114882;28;20459;-76
2023/08/15 02:34:48;;;;;;;5.03;4.53;;;23.70;61.00;;;;;;5115022;28;20584;-76
2023/08/15 02:37:15;;;;;;;5.43;4.70;;;23.70;61.00;;;;;;5113262;28;20070;-75
2023/08/15 02:39:41;;;;;;;6.45;4.70;;;23.70;61.00;;;;;;5113948;28;20020;-75
2023/08/15 02:42:06;;;;;;;6.07;4.50;;;23.70;61.10;;;;;;5115125;28;20072;-76
2023/08/15 02:44:33;;;;;;;7.32;5.10;;;23.70;61.20;;;;;;5114979;28;20381;-75
2023/08/15 02:46:58;;;;;;;6.75;5.03;;;23.70;61.20;;;;;;5114864;28;20028;-75
2023/08/15 02:49:24;;;;;;;6.68;5.50;;;23.60;61.30;;;;;;5113053;28;20032;-76
2023/08/15 02:51:50;;;;;;;5.43;4.85;;;23.60;61.50;;;;;;5114029;28;20511;-75
2023/08/15 02:54:15;;;;;;;5.70;4.78;;;23.60;61.50;;;;;;5112763;28;20034;-76
2023/08/15 02:56:41;;;;;;;5.30;4.80;;;23.60;61.60;;;;;;5114999;27;20290;-75
2023/08/15 02:59:07;;;;;;;5.95;5.35;;;23.60;61.70;;;;;;5114450;28;20036;-76
2023/08/15 03:01:32;;;;;;;5.72;5.13;;;23.60;61.70;;;;;;5113056;28;20027;-76
2023/08/15 03:03:58;;;;;;;5.60;4.78;;;23.60;61.70;;;;;;5114635;28;20041;-75
2023/08/15 03:06:24;;;;;;;5.95;5.05;;;23.50;61.70;;;;;;5114245;28;20111;-76
2023/08/15 03:08:50;;;;;;;5.50;4.90;;;23.50;61.70;;;;;;5114886;28;20023;-76
2023/08/15 03:11:15;;;;;;;15.82;5.35;;;23.50;61.80;;;;;;5114293;28;20051;-76
2023/08/15 03:13:41;;;;;;;5.65;4.72;;;23.50;61.80;;;;;;5114352;28;20313;-76
2023/08/15 03:16:06;;;;;;;7.07;5.18;;;23.50;61.80;;;;;;5114151;28;20031;-76
2023/08/15 03:18:32;;;;;;;5.65;4.63;;;23.50;61.90;;;;;;5114083;28;20051;-76
2023/08/15 03:21:03;;;;;;;5.80;4.68;;;23.50;62.00;;;;;;5114575;28;20575;-75
2023/08/15 03:23:29;;;;;;;5.05;4.55;;;23.50;62.00;;;;;;5126387;27;20377;-76
2023/08/15 03:25:55;;;;;;;5.30;4.60;;;23.50;62.10;;;;;;5113951;28;20023;-76
2023/08/15 03:28:21;;;;;;;6.10;5.05;;;23.50;62.20;;;;;;5112024;28;20026;-76
2023/08/15 03:30:46;;;;;;;6.20;5.10;;;23.50;62.20;;;;;;5114297;28;20019;-76
2023/08/15 03:33:12;;;;;;;6.55;5.15;;;23.50;62.20;;;;;;5113746;28;20036;-76
2023/08/15 03:35:47;;;;;;;5.43;4.78;;;23.50;62.30;;;;;;5114131;28;20035;-76
2023/08/15 03:38:17;;;;;;;6.25;5.00;;;23.50;62.40;;;;;;5112507;28;20067;-76
2023/08/15 03:40:47;;;;;;;5.47;4.80;;;23.50;62.40;;;;;;5114104;28;20044;-75
2023/08/15 03:43:13;;;;;;;6.32;4.70;;;23.50;62.40;;;;;;5112213;28;20028;-76
2023/08/15 03:45:41;;;;;;;5.68;4.93;;;23.50;62.50;;;;;;5112286;28;20503;-75
2023/08/15 03:48:08;;;;;;;5.60;5.00;;;23.50;62.50;;;;;;5113612;28;20028;-76
2023/08/15 03:50:35;;;;;;;6.35;4.82;;;23.50;62.50;;;;;;5113519;28;20055;-76
2023/08/15 03:53:01;;;;;;;5.50;4.60;;;23.50;62.50;;;;;;5113727;28;20055;-75
2023/08/15 03:55:29;;;;;;;4.88;4.38;;;23.50;62.50;;;;;;5112466;28;20043;-75
2023/08/15 03:57:55;;;;;;;6.22;5.03;;;23.50;62.60;;;;;;5120134;27;20118;-75
2023/08/15 04:00:21;;;;;;;7.43;5.10;;;23.50;62.60;;;;;;5111888;28;20454;-75
2023/08/15 04:02:47;;;;;;;7.07;4.60;;;23.50;62.60;;;;;;5113565;28;20069;-76
2023/08/15 04:05:13;;;;;;;5.18;4.68;;;23.50;62.70;;;;;;5112727;28;20031;-76
2023/08/15 04:07:39;;;;;;;6.55;4.95;;;23.50;62.70;;;;;;5113148;28;20024;-76
2023/08/15 04:10:06;;;;;;;5.65;4.85;;;23.60;62.80;;;;;;5111554;28;20074;-76
2023/08/15 04:12:33;;;;;;;6.00;5.40;;;23.60;62.80;;;;;;5111869;28;20035;-76
2023/08/15 04:14:59;;;;;;;6.63;5.07;;;23.60;62.90;;;;;;5112733;28;20084;-76
2023/08/15 04:17:25;;;;;;;5.50;4.88;;;23.60;62.90;;;;;;5111378;28;20110;-77
2023/08/15 04:19:51;;;;;;;6.63;5.05;;;23.60;62.90;;;;;;5112016;28;20533;-76
2023/08/15 04:22:17;;;;;;;6.07;4.80;;;23.70;63.00;;;;;;5111339;28;20027;-76
2023/08/15 04:24:43;;;;;;;5.20;4.70;;;23.70;63.00;;;;;;5113142;28;20027;-76
2023/08/15 04:27:08;;;;;;;5.35;4.85;;;23.70;63.00;;;;;;5111091;28;20030;-76
2023/08/15 04:29:34;;;;;;;10.23;8.48;;;23.70;63.00;;;;;;5112707;28;20039;-76
2023/08/15 04:31:59;;;;;;;33.08;27.02;;;23.70;63.00;;;;;;5112773;28;20031;-76
2023/08/15 04:34:25;;;;;;;22.60;18.63;;;23.80;63.10;;;;;;5111705;28;20036;-77
2023/08/15 04:36:51;;;;;;;17.67;15.68;;;23.80;63.10;;;;;;5112909;28;20458;-76
2023/08/15 04:39:23;;;;;;;14.52;11.45;;;23.80;63.10;;;;;;5110718;28;20063;-76
2023/08/15 04:41:48;;;;;;;13.50;9.38;;;23.90;63.20;;;;;;5112604;28;20032;-76
2023/08/15 04:44:14;;;;;;;9.77;8.43;;;23.90;63.10;;;;;;5112454;28;20488;-76
2023/08/15 04:46:40;;;;;;;10.57;7.03;;;24.00;63.10;;;;;;5113026;28;20051;-77
2023/08/15 04:49:06;;;;;;;7.43;6.47;;;24.00;63.10;;;;;;5112029;28;20039;-76
2023/08/15 04:51:32;;;;;;;9.43;6.70;;;24.10;63.10;;;;;;5112521;28;20020;-76
2023/08/15 04:53:57;;;;;;;7.30;6.38;;;24.20;63.10;;;;;;5113006;28;20042;-76
2023/08/15 04:56:23;;;;;;;9.82;7.65;;;24.20;63.00;;;;;;5113654;27;20051;-76
2023/08/15 04:58:49;;;;;;;11.60;9.02;;;24.20;63.00;;;;;;5117727;27;20028;-76
2023/08/15 05:01:15;;;;;;;8.10;7.20;;;24.30;63.00;;;;;;5111835;28;20421;-76
2023/08/15 05:03:40;;;;;;;10.18;8.38;;;24.30;62.80;;;;;;5110913;28;20034;-76
2023/08/15 05:06:06;;;;;;;7.50;6.70;;;24.40;62.70;;;;;;5112365;28;20032;-76
2023/08/15 05:08:32;;;;;;;7.63;5.85;;;24.40;62.70;;;;;;5112584;28;20032;-76
2023/08/15 05:10:58;;;;;;;6.38;5.18;;;24.40;62.70;;;;;;5112489;28;20108;-76
2023/08/15 05:13:24;;;;;;;6.32;5.65;;;24.40;62.70;;;;;;5112235;28;20019;-76
2023/08/15 05:15:50;;;;;;;6.18;4.60;;;24.40;62.70;;;;;;5112032;28;20523;-76
2023/08/15 05:18:16;;;;;;;6.10;4.88;;;24.40;62.70;;;;;;5118335;28;20024;-76
2023/08/15 05:20:42;;;;;;;16.25;13.75;;;24.50;62.70;;;;;;5118616;27;20456;-80
2023/08/15 05:23:08;;;;;;;11.30;9.23;;;24.50;62.60;;;;;;5118971;28;20035;-76
2023/08/15 05:25:34;;;;;;;12.90;10.82;;;24.60;62.60;;;;;;5117601;28;20024;-76
2023/08/15 05:28:04;;;;;;;11.77;9.48;;;24.60;62.60;;;;;;5117505;28;20034;-75
2023/08/15 05:30:31;;;;;;;11.85;8.20;;;24.70;62.50;;;;;;5125507;27;20032;-76
2023/08/15 05:32:57;;;;;;;8.50;7.60;;;24.70;62.40;;;;;;5118749;27;20541;-76
2023/08/15 05:35:23;;;;;;;6.97;5.97;;;24.70;62.20;;;;;;5118555;27;20546;-75
2023/08/15 05:37:49;;;;;;;6.35;5.13;;;24.80;62.10;;;;;;5118778;28;20027;-76
2023/08/15 05:40:15;;;;;;;6.38;5.03;;;24.80;62.00;;;;;;5118271;28;20473;-75
2023/08/15 05:42:41;;;;;;;7.43;4.93;;;24.90;62.00;;;;;;5117426;28;20108;-75
2023/08/15 05:45:07;;;;;;;5.95;4.68;;;24.90;61.80;;;;;;5118945;28;20462;-66
2023/08/15 05:47:33;;;;;;;5.28;4.15;;;24.90;61.80;;;;;;5118307;27;20027;-72
2023/08/15 05:49:59;;;;;;;7.03;4.50;;;25.00;61.90;;;;;;5118475;28;20060;-77
2023/08/15 05:52:26;;;;;;;5.32;4.47;;;25.10;61.90;;;;;;5117833;28;20034;-79
2023/08/15 05:54:51;;;;;;;6.28;4.00;;;25.10;61.80;;;;;;5117685;28;20555;-84
2023/08/15 05:57:17;;;;;;;4.88;3.88;;;25.10;61.70;;;;;;5119275;27;20023;-76
2023/08/15 05:59:42;;;;;;;5.28;4.43;;;25.20;61.70;;;;;;5118627;28;20019;-72
2023/08/15 06:02:09;;;;;;;5.28;3.83;;;25.20;61.60;;;;;;5118337;28;20031;-73
2023/08/15 06:04:35;;;;;;;5.22;4.00;;;25.30;61.60;;;;;;5117440;28;20035;-78
2023/08/15 06:07:02;;;;;;;4.47;3.72;;;25.30;61.60;;;;;;5118871;27;20019;-81
2023/08/15 06:09:28;;;;;;;4.45;3.78;;;25.40;61.60;;;;;;5111145;28;20491;-76
2023/08/15 06:11:54;;;;;;;4.40;3.80;;;25.40;61.60;;;;;;5118405;28;20032;-75
2023/08/15 06:14:20;;;;;;;7.03;3.88;;;25.40;61.40;;;;;;5118719;28;20439;-76
2023/08/15 06:16:46;;;;;;;4.05;3.35;;;25.50;61.40;;;;;;5116972;28;20050;-76
2023/08/15 06:19:12;;;;;;;4.35;3.10;;;25.50;61.30;;;;;;5117431;28;20028;-82
2023/08/15 06:21:41;;;;;;;4.13;3.40;;;25.60;61.10;;;;;;5116861;28;20030;-78
2023/08/15 06:24:10;;;;;;;5.60;3.40;;;25.60;61.00;;;;;;5118241;28;20039;-81
2023/08/15 06:26:36;;;;;;;3.40;3.10;;;25.70;61.00;;;;;;5118823;28;20088;-81
2023/08/15 06:29:03;;;;;;;4.82;3.30;;;25.70;60.90;;;;;;5116187;27;20040;-84
2023/08/15 06:31:30;;;;;;;4.13;3.20;;;25.70;60.80;;;;;;5106605;28;20027;-78
2023/08/15 06:33:55;;;;;;;3.83;3.42;;;25.80;60.80;;;;;;5114824;28;20032;-81
2023/08/15 06:36:21;;;;;;;4.65;3.33;;;25.80;60.70;;;;;;5113009;28;20035;-77
2023/08/15 06:38:49;;;;;;;4.35;3.38;;;25.80;60.60;;;;;;5115676;28;20031;-75
2023/08/15 06:41:14;;;;;;;4.05;3.00;;;25.90;60.50;;;;;;5115737;28;20020;-80
2023/08/15 06:43:40;;;;;;;6.18;3.85;;;25.90;60.40;;;;;;5114736;28;20027;-76
2023/08/15 06:46:06;;;;;;;3.72;3.00;;;26.00;60.40;;;;;;5114444;28;20345;-76
2023/08/15 06:48:32;;;;;;;4.68;3.80;;;26.00;60.40;;;;;;5115748;28;20496;-82
2023/08/15 06:50:57;;;;;;;5.22;3.30;;;26.10;60.40;;;;;;5113838;28;20035;-73
2023/08/15 06:53:23;;;;;;;3.85;3.05;;;26.10;60.20;;;;;;5114146;28;20036;-73
2023/08/15 06:55:49;;;;;;;3.58;3.28;;;26.10;60.10;;;;;;5115603;28;20027;-73
2023/08/15 06:58:15;;;;;;;4.00;3.13;;;26.10;60.00;;;;;;5132038;27;20057;-73
2023/08/15 07:00:43;;;;;;;3.83;2.95;;;26.20;59.90;;;;;;5130523;27;20059;-74
2023/08/15 07:03:09;;;;;;;3.50;3.08;;;26.20;59.80;;;;;;5115328;28;20034;-68
2023/08/15 07:05:34;;;;;;;4.88;2.90;;;26.30;59.80;;;;;;5114582;28;20103;-76
2023/08/15 07:08:03;;;;;;;6.82;3.15;;;26.30;59.70;;;;;;5113970;28;20450;-73
2023/08/15 07:10:29;;;;;;;5.40;3.10;;;26.30;59.60;;;;;;5114194;28;20056;-74
2023/08/15 07:12:55;;;;;;;4.40;3.20;;;26.30;59.50;;;;;;5114612;28;20027;-75
2023/08/15 07:15:20;;;;;;;3.80;3.10;;;26.40;59.50;;;;;;5112488;27;20451;-74
2023/08/15 07:17:46;;;;;;;7.32;3.10;;;26.40;59.40;;;;;;5123170;27;20544;-74
2023/08/15 07:20:14;;;;;;;3.45;3.00;;;26.40;59.30;;;;;;5114299;28;20031;-78
2023/08/15 07:22:43;;;;;;;3.10;2.80;;;26.50;59.30;;;;;;5114772;28;20031;-77
2023/08/15 07:25:11;;;;;;;4.15;2.72;;;26.50;59.10;;;;;;5114521;28;20031;-80
2023/08/15 07:27:37;;;;;;;3.53;2.55;;;26.50;59.10;;;;;;5113141;28;20024;-78
2023/08/15 07:30:04;;;;;;;5.43;3.00;;;26.60;59.10;;;;;;5114214;28;20052;-86
2023/08/15 07:32:29;;;;;;;4.43;2.75;;;26.60;59.10;;;;;;5113333;28;20450;-72
2023/08/15 07:34:55;;;;;;;3.15;2.80;;;26.60;59.10;;;;;;5114355;28;20067;-79
2023/08/15 07:37:21;;;;;;;2.95;2.60;;;26.60;59.00;;;;;;5112886;28;20032;-76
2023/08/15 07:40:00;;;;;;;4.70;2.47;;;26.70;59.00;;;;;;5111857;28;20050;-84
2023/08/15 07:42:26;;;;;;;5.55;2.80;;;26.70;59.10;;;;;;5112676;28;20035;-78
2023/08/15 07:44:52;;;;;;;3.10;2.67;;;26.80;59.80;;;;;;5113801;28;20028;-77
2023/08/15 07:47:18;;;;;;;4.28;2.70;;;26.80;58.90;;;;;;5114250;28;20027;-76
2023/08/15 07:49:44;;;;;;;3.63;2.70;;;26.80;58.70;;;;;;5113805;28;20055;-76
2023/08/15 07:52:09;;;;;;;3.30;2.60;;;26.80;58.60;;;;;;5114668;28;20034;-78
2023/08/15 07:54:35;;;;;;;3.55;2.53;;;26.90;58.50;;;;;;5114065;28;20416;-77
2023/08/15 07:57:01;;;;;;;4.97;2.42;;;26.90;58.40;;;;;;5113087;28;20465;-80
2023/08/15 07:59:26;;;;;;;4.95;2.60;;;26.90;58.20;;;;;;5113093;28;20036;-75
2023/08/15 08:01:52;;;;;;;3.42;2.40;;;27.00;58.10;;;;;;5113445;28;20027;-77
2023/08/15 08:04:19;;;;;;;5.32;2.78;;;27.00;58.10;;;;;;5114241;28;20035;-78
2023/08/15 08:06:45;;;;;;;4.28;2.70;;;27.00;58.00;;;;;;5113482;28;20051;-75
2023/08/15 08:09:10;;;;;;;5.63;2.85;;;27.00;57.90;;;;;;5111267;28;20035;-85
2023/08/15 08:11:38;;;;;;;4.57;2.53;;;27.10;57.80;;;;;;5113208;28;20031;-82
2023/08/15 08:14:04;;;;;;;3.17;2.22;;;27.10;57.80;;;;;;5114005;28;20031;-84
2023/08/15 08:16:30;;;;;;;4.20;3.35;;;27.10;57.80;;;;;;5113206;28;20084;-78
2023/08/15 08:18:56;;;;;;;4.50;2.97;;;27.10;57.80;;;;;;5112174;28;20035;-87
2023/08/15 08:21:22;;;;;;;4.10;2.80;;;27.10;57.60;;;;;;5114595;28;20107;-69
2023/08/15 08:23:48;;;;;;;3.83;2.78;;;27.20;57.60;;;;;;5113518;28;20043;-79
2023/08/15 08:26:13;;;;;;;4.03;3.22;;;27.20;57.60;;;;;;5112441;28;20487;-76
2023/08/15 08:28:39;;;;;;;4.70;3.00;;;27.20;57.50;;;;;;5114031;28;20061;-73
2023/08/15 08:31:05;;;;;;;3.72;3.17;;;27.30;57.50;;;;;;5113308;28;20062;-75
2023/08/15 08:33:30;;;;;;;4.35;3.30;;;27.30;57.40;;;;;;5112937;28;20070;-75
2023/08/15 08:35:56;;;;;;;4.47;3.10;;;27.30;57.30;;;;;;5112039;28;20040;-76
2023/08/15 08:38:22;;;;;;;7.68;3.30;;;27.40;57.30;;;;;;5111582;28;20473;-79
2023/08/15 08:40:47;;;;;;;4.78;3.25;;;27.40;57.30;;;;;;5113469;28;20380;-77
2023/08/15 08:43:18;;;;;;;7.72;3.55;;;27.40;57.30;;;;;;5112887;28;20110;-75
2023/08/15 08:45:49;;;;;;;4.40;3.25;;;27.40;57.30;;;;;;5113526;28;20031;-75
2023/08/15 08:48:16;;;;;;;5.93;3.35;;;27.40;57.40;;;;;;5112762;28;20051;-74
2023/08/15 08:50:43;;;;;;;4.55;3.47;;;27.40;57.40;;;;;;5110622;28;20028;-75
2023/08/15 08:53:08;;;;;;;5.07;3.10;;;27.40;57.40;;;;;;5112918;28;20019;-77
2023/08/15 08:55:35;;;;;;;4.30;3.67;;;27.40;57.30;;;;;;5112341;28;20027;-76
2023/08/15 08:58:02;;;;;;;5.72;3.15;;;27.40;57.30;;;;;;5114306;27;20054;-84
2023/08/15 09:00:34;;;;;;;3.40;2.97;;;27.50;57.20;;;;;;5105245;28;20393;-80
2023/08/15 09:03:00;;;;;;;6.90;3.10;;;27.50;57.80;;;;;;5113681;28;20020;-83
2023/08/15 09:05:28;;;;;;;4.60;3.25;;;27.50;57.20;;;;;;5112722;28;20134;-78
2023/08/15 09:07:54;;;;;;;5.10;3.88;;;27.60;57.20;;;;;;5111003;28;20111;-79
2023/08/15 09:10:23;;;;;;;6.85;4.97;;;27.50;57.10;;;;;;5112705;28;20067;-79
2023/08/15 09:12:49;;;;;;;7.80;4.90;;;27.60;57.20;;;;;;5111974;28;20411;-80
2023/08/15 09:15:15;;;;;;;5.82;3.85;;;27.60;57.10;;;;;;5112311;28;20065;-81
2023/08/15 09:17:42;;;;;;;7.15;3.17;;;27.70;57.10;;;;;;5112223;28;20071;-82
2023/08/15 09:20:10;;;;;;;5.47;4.03;;;27.70;57.00;;;;;;5110107;28;20028;-83
2023/08/15 09:22:39;;;;;;;10.60;4.90;;;27.70;57.00;;;;;;5110245;28;20019;-74
2023/08/15 09:25:05;;;;;;;7.20;4.75;;;27.70;56.90;;;;;;5111979;28;20069;-77
2023/08/15 09:27:31;;;;;;;7.88;3.63;;;27.80;56.80;;;;;;5112883;28;20074;-86
2023/08/15 09:29:56;;;;;;;5.43;3.60;;;27.80;56.60;;;;;;5111647;28;20054;-79
2023/08/15 09:32:22;;;;;;;4.95;3.60;;;27.90;56.70;;;;;;5102109;28;20413;-72
2023/08/15 09:34:47;;;;;;;6.28;3.60;;;27.90;56.50;;;;;;5112158;28;20390;-78
2023/08/15 09:37:13;;;;;;;5.05;3.45;;;27.90;56.50;;;;;;5110921;28;20035;-77
2023/08/15 09:39:39;;;;;;;4.45;3.30;;;27.90;56.60;;;;;;5112073;28;20068;-79
2023/08/15 09:42:05;;;;;;;3.78;3.22;;;27.90;56.40;;;;;;5112900;28;20394;-84
2023/08/15 09:44:37;;;;;;;4.15;2.80;;;28.00;56.50;;;;;;5111718;28;20028;-86
2023/08/15 09:47:04;;;;;;;3.17;2.45;;;28.00;56.30;;;;;;5112866;28;20032;-81
2023/08/15 09:49:31;;;;;;;3.92;2.30;;;28.00;56.10;;;;;;5112434;28;20114;-81
2023/08/15 09:51:59;;;;;;;2.95;2.30;;;28.10;55.90;;;;;;5112600;28;20016;-81
2023/08/15 09:54:27;;;;;;;3.83;2.30;;;28.10;55.60;;;;;;5111585;28;20034;-84
2023/08/15 09:56:53;;;;;;;2.15;1.95;;;28.20;55.50;;;;;;5118420;28;20031;-85
2023/08/15 09:59:20;;;;;;;3.80;2.20;;;28.20;55.20;;;;;;5133939;28;20102;-86
2023/08/15 10:01:47;;;;;;;2.08;1.88;;;28.30;54.90;;;;;;5133013;27;20029;-84
2023/08/15 10:04:15;;;;;;;3.58;1.98;;;28.30;54.70;;;;;;5152054;27;20035;-68
2023/08/15 10:06:43;;;;;;;3.70;2.20;;;28.40;54.70;;;;;;5135883;27;20050;-85
2023/08/15 10:09:12;;;;;;;2.65;2.17;;;28.40;54.70;;;;;;5152859;27;20529;-87
2023/08/15 10:11:45;;;;;;;3.17;1.88;;;28.40;54.50;;;;;;5152983;27;20035;-87
2023/08/15 10:14:17;;;;;;;2.45;2.22;;;28.50;54.30;;;;;;5151746;27;20507;-78
2023/08/15 10:16:43;;;;;;;2.13;1.88;;;28.50;54.20;;;;;;5136818;27;20034;-77
2023/08/15 10:19:15;;;;;;;2.65;1.88;;;28.60;54.20;;;;;;5124022;27;20046;-80
2023/08/15 10:21:51;;;;;;;2.72;1.90;;;28.60;54.10;;;;;;5115852;28;20035;-80
2023/08/15 10:24:17;;;;;;;1.90;1.67;;;28.70;54.00;;;;;;5116147;28;20035;-88
2023/08/15 10:26:44;;;;;;;1.88;1.70;;;28.70;53.90;;;;;;5116187;28;20480;-79
2023/08/15 10:29:10;;;;;;;2.33;1.73;;;28.70;53.70;;;;;;5116367;28;20043;-82
2023/08/15 10:31:37;;;;;;;2.88;1.95;;;28.70;53.60;;;;;;5115470;28;20095;-77
2023/08/15 10:34:04;;;;;;;4.13;2.17;;;28.70;53.40;;;;;;5114390;28;20038;-79
2023/08/15 10:36:32;;;;;;;2.30;2.10;;;28.70;53.40;;;;;;5116310;28;20077;-78
2023/08/15 10:39:07;;;;;;;2.42;1.83;;;28.70;53.30;;;;;;5116144;28;20055;-70
2023/08/15 10:41:36;;;;;;;2.78;2.08;;;28.80;53.30;;;;;;5115985;28;20027;-81
2023/08/15 10:44:05;;;;;;;3.80;2.38;;;28.70;53.10;;;;;;5114797;28;20028;-86
2023/08/15 10:46:34;;;;;;;3.20;2.13;;;28.80;53.30;;;;;;5113849;28;20533;-82
2023/08/15 10:49:09;;;;;;;2.70;1.67;;;28.80;53.30;;;;;;5115426;28;20110;-79
2023/08/15 10:51:39;;;;;;;2.40;1.80;;;28.80;53.00;;;;;;5113262;28;20015;-84
2023/08/15 10:54:16;;;;;;;4.28;1.85;;;28.80;52.90;;;;;;5113386;28;20366;-80
2023/08/15 10:56:43;;;;;;;2.30;1.90;;;28.90;52.80;;;;;;5114188;27;20067;-81
2023/08/15 10:59:13;;;;;;;2.88;1.70;;;28.90;52.60;;;;;;5113481;28;20477;-87
2023/08/15 11:01:41;;;;;;;2.63;1.63;;;29.00;52.50;;;;;;5114820;27;20035;-84
2023/08/15 11:04:12;;;;;;;1.98;1.42;;;29.00;52.10;;;;;;5113803;28;20039;-85
2023/08/15 11:06:46;;;;;;;1.67;1.40;;;29.00;52.00;;;;;;5114769;28;20411;-81
2023/08/15 11:09:12;;;;;;;1.90;1.73;;;29.10;51.90;;;;;;5114344;28;20031;-78
2023/08/15 11:11:38;;;;;;;1.95;1.77;;;29.10;51.90;;;;;;5114030;28;20111;-86
2023/08/15 11:14:13;;;;;;;3.22;1.90;;;29.10;51.70;;;;;;5112572;28;21779;-75
2023/08/15 11:16:38;;;;;;;5.68;2.17;;;29.10;51.90;;;;;;5113899;28;20032;-77
2023/08/15 11:19:04;;;;;;;3.22;2.10;;;29.10;52.10;;;;;;5112279;28;20500;-75
2023/08/15 11:21:30;;;;;;;3.17;1.73;;;29.00;52.00;;;;;;5113767;28;20023;-75
2023/08/15 11:23:58;;;;;;;3.15;2.30;;;29.00;52.10;;;;;;5113082;28;20450;-77
2023/08/15 11:26:25;;;;;;;2.92;1.90;;;28.90;52.20;;;;;;5115042;28;20031;-78
2023/08/15 11:28:51;;;;;;;2.80;2.08;;;28.90;52.00;;;;;;5115032;28;20015;-74
2023/08/15 11:31:17;;;;;;;3.00;1.90;;;28.90;52.00;;;;;;5114582;28;20020;-80
2023/08/15 11:33:43;;;;;;;4.35;2.00;;;28.90;52.00;;;;;;5114599;28;20481;-79
2023/08/15 11:36:10;;;;;;;2.40;1.90;;;28.90;52.00;;;;;;5115032;28;20038;-78
2023/08/15 11:38:37;;;;;;;1.92;1.60;;;29.00;52.10;;;;;;5114797;28;20027;-85
2023/08/15 11:41:03;;;;;;;2.15;1.88;;;28.90;52.10;;;;;;5113055;28;20438;-86
2023/08/15 11:43:30;;;;;;;2.45;1.65;;;28.80;52.10;;;;;;5112486;28;20733;-86
2023/08/15 11:45:56;;;;;;;2.00;1.80;;;28.80;52.20;;;;;;5114007;28;20073;-83
2023/08/15 11:48:22;;;;;;;3.35;1.90;;;28.70;52.10;;;;;;5108371;28;20015;-77
2023/08/15 11:50:48;;;;;;;3.55;1.95;;;28.70;52.20;;;;;;5114205;28;20035;-77
2023/08/15 11:53:15;;;;;;;1.60;1.50;;;28.70;52.40;;;;;;5114418;28;20457;-77
2023/08/15 11:55:43;;;;;;;1.73;1.58;;;28.70;52.20;;;;;;5112319;28;20114;-80
2023/08/15 11:58:28;;;;;;;2.58;1.65;;;28.70;52.60;;;;;;5129947;27;20510;-78
2023/08/15 12:00:56;;;;;;;2.15;1.60;;;28.70;51.90;;;;;;5135144;27;20031;-82
2023/08/15 12:03:24;;;;;;;1.60;1.50;;;28.80;52.00;;;;;;5135030;27;20068;-81
2023/08/15 12:05:54;;;;;;;1.60;1.50;;;28.90;51.80;;;;;;5134753;27;20469;-86
2023/08/15 12:08:19;;;;;;;2.50;1.70;;;29.00;51.60;;;;;;5113561;28;20027;-79
2023/08/15 12:10:46;;;;;;;2.10;1.58;;;29.00;51.40;;;;;;5112534;28;20131;-81
2023/08/15 12:13:12;;;;;;;2.92;1.77;;;29.10;51.30;;;;;;5112709;27;20034;-73
2023/08/15 12:15:37;;;;;;;1.85;1.67;;;29.20;51.40;;;;;;5113204;28;20031;-73
2023/08/15 12:18:03;;;;;;;2.75;1.85;;;29.20;51.40;;;;;;5112114;28;20023;-74
2023/08/15 12:20:29;;;;;;;5.63;2.83;;;29.20;51.50;;;;;;5112628;28;20076;-71
2023/08/15 12:22:54;;;;;;;3.30;1.83;;;29.20;51.60;;;;;;5112099;28;20028;-75
2023/08/15 12:25:21;;;;;;;6.70;1.90;;;29.20;51.50;;;;;;5110291;28;20020;-72
2023/08/15 12:27:47;;;;;;;2.75;2.00;;;29.30;51.80;;;;;;5112526;28;20024;-71
2023/08/15 12:30:13;;;;;;;4.50;1.95;;;29.30;52.00;;;;;;5112913;28;20027;-69
2023/08/15 12:32:39;;;;;;;2.25;1.60;;;29.30;52.10;;;;;;5113101;28;20023;-75
2023/08/15 12:35:04;;;;;;;2.08;1.52;;;29.30;52.20;;;;;;5110977;28;20039;-69
2023/08/15 12:37:30;;;;;;;3.97;1.98;;;29.30;52.30;;;;;;5112798;28;20077;-74
2023/08/15 12:39:56;;;;;;;3.60;1.85;;;29.30;52.20;;;;;;5112910;28;20032;-72
2023/08/15 12:42:22;;;;;;;2.67;2.10;;;29.40;52.20;;;;;;5112502;28;20077;-72
2023/08/15 12:44:47;;;;;;;1.70;1.60;;;29.40;52.20;;;;;;5110833;28;20024;-71